Time;durP1;ratioP1;P1;durP2;ratioP2;P2;SDS_P1;SDS_P2;PMS_P1;PMS_P2;Temp;Humidity;BMP_temperature;BMP_pressure;BME280_temperature;BME280_humidity;BME280_pressure;Samples;Min_cycle;Max_cycle;Signal;HPM_P1;HPM_P2
2022/07/06 00:01:28;;;;;;;7.57;1.63;;;;;;;;;;4992542;28;20030;-71
2022/07/06 00:03:53;;;;;;;4.03;1.38;;;;;;;;;;4991753;28;20372;-69
2022/07/06 00:06:19;;;;;;;7.30;1.10;;;;;;;;;;4991366;28;20039;-68
2022/07/06 00:08:44;;;;;;;5.27;1.77;;;;;;;;;;4992381;28;20328;-68
2022/07/06 00:11:09;;;;;;;5.65;2.00;;;;;;;;;;4986793;28;20320;-69
2022/07/06 00:13:34;;;;;;;11.40;2.00;;;;;;;;;;4992115;28;20394;-69
2022/07/06 00:16:00;;;;;;;6.78;1.83;;;;;;;;;;4989867;28;20026;-69
2022/07/06 00:18:25;;;;;;;4.60;1.50;;;;;;;;;;4992700;28;20056;-69
2022/07/06 00:20:50;;;;;;;7.30;2.37;;;;;;;;;;4990301;28;20273;-70
2022/07/06 00:23:15;;;;;;;10.95;2.53;;;;;;;;;;4992973;28;20639;-69
2022/07/06 00:25:40;;;;;;;4.53;1.88;;;;;;;;;;4989437;28;20479;-70
2022/07/06 00:28:05;;;;;;;2.93;1.40;;;;;;;;;;4991675;28;20041;-70
2022/07/06 00:30:31;;;;;;;9.90;1.83;;;;;;;;;;4990395;28;20282;-70
2022/07/06 00:32:58;;;;;;;7.28;1.95;;;;;;;;;;4992592;28;20355;-70
2022/07/06 00:35:23;;;;;;;3.65;1.70;;;;;;;;;;4988948;28;20031;-70
2022/07/06 00:37:48;;;;;;;7.25;3.17;;;;;;;;;;4992045;28;20630;-70
2022/07/06 00:40:13;;;;;;;4.73;2.10;;;;;;;;;;4990566;28;20442;-70
2022/07/06 00:42:46;;;;;;;7.30;2.20;;;;;;;;;;4987740;28;20401;-69
2022/07/06 00:45:12;;;;;;;9.18;2.83;;;;;;;;;;4989893;28;20789;-69
2022/07/06 00:47:38;;;;;;;7.05;1.73;;;;;;;;;;4992755;28;20034;-69
2022/07/06 00:50:22;;;;;;;6.07;1.88;;;;;;;;;;4990891;28;20018;-69
2022/07/06 00:53:01;;;;;;;7.97;2.20;;;;;;;;;;4991379;28;20023;-69
2022/07/06 00:55:27;;;;;;;3.83;1.90;;;;;;;;;;4986597;28;20022;-69
2022/07/06 00:57:52;;;;;;;4.43;1.95;;;;;;;;;;4990695;28;20026;-69
2022/07/06 01:00:19;;;;;;;7.57;2.00;;;;;;;;;;4988664;28;20045;-68
2022/07/06 01:02:45;;;;;;;6.53;2.08;;;;;;;;;;4990737;28;20506;-69
2022/07/06 01:05:11;;;;;;;5.05;1.92;;;;;;;;;;4986924;28;20030;-69
2022/07/06 01:07:38;;;;;;;8.60;2.30;;;;;;;;;;4984533;28;20015;-69
2022/07/06 01:10:03;;;;;;;4.72;1.73;;;;;;;;;;4986154;28;20022;-69
2022/07/06 01:12:29;;;;;;;4.63;2.30;;;;;;;;;;4989807;28;20487;-69
2022/07/06 01:14:54;;;;;;;6.80;2.00;;;;;;;;;;4988669;28;20018;-69
2022/07/06 01:17:20;;;;;;;5.43;1.92;;;;;;;;;;4990677;28;20045;-69
2022/07/06 01:19:45;;;;;;;4.38;2.83;;;;;;;;;;4989106;28;20071;-69
2022/07/06 01:22:11;;;;;;;4.93;2.20;;;;;;;;;;4990581;28;20038;-69
2022/07/06 01:24:36;;;;;;;7.03;2.70;;;;;;;;;;4989106;28;20318;-69
2022/07/06 01:27:03;;;;;;;11.30;2.20;;;;;;;;;;4988062;28;20277;-69
2022/07/06 01:29:28;;;;;;;4.25;1.85;;;;;;;;;;4990977;28;20041;-69
2022/07/06 01:31:53;;;;;;;3.90;2.13;;;;;;;;;;4987571;28;20390;-69
2022/07/06 01:34:18;;;;;;;13.13;2.37;;;;;;;;;;4991865;28;20265;-69
2022/07/06 01:36:44;;;;;;;6.95;2.10;;;;;;;;;;4985455;28;20305;-69
2022/07/06 01:39:10;;;;;;;10.68;2.55;;;;;;;;;;4985587;28;20034;-69
2022/07/06 01:41:35;;;;;;;4.70;1.80;;;;;;;;;;4986862;28;20033;-69
2022/07/06 01:44:00;;;;;;;6.10;2.53;;;;;;;;;;4988603;28;20028;-69
2022/07/06 01:46:26;;;;;;;12.68;2.40;;;;;;;;;;4990230;28;20026;-69
2022/07/06 01:48:51;;;;;;;6.60;2.20;;;;;;;;;;4990876;28;20333;-69
2022/07/06 01:51:16;;;;;;;4.83;2.47;;;;;;;;;;4990430;28;20122;-68
2022/07/06 01:53:41;;;;;;;7.40;2.28;;;;;;;;;;4989106;28;20955;-69
2022/07/06 01:56:07;;;;;;;6.15;2.42;;;;;;;;;;4986679;28;20023;-69
2022/07/06 01:58:32;;;;;;;5.13;2.63;;;;;;;;;;4988435;28;20022;-68
2022/07/06 02:00:57;;;;;;;7.70;2.57;;;;;;;;;;4989651;28;20146;-69
2022/07/06 02:03:23;;;;;;;9.45;4.43;;;;;;;;;;4985844;28;20274;-69
2022/07/06 02:05:48;;;;;;;8.77;2.83;;;;;;;;;;4987876;28;20125;-69
2022/07/06 02:08:13;;;;;;;7.18;2.38;;;;;;;;;;4985095;28;20101;-69
2022/07/06 02:10:38;;;;;;;13.23;3.00;;;;;;;;;;4988201;28;20025;-69
2022/07/06 02:13:03;;;;;;;7.55;2.38;;;;;;;;;;4986638;28;20302;-69
2022/07/06 02:15:29;;;;;;;4.38;2.38;;;;;;;;;;4990714;28;20105;-69
2022/07/06 02:17:54;;;;;;;6.30;2.63;;;;;;;;;;4987821;28;20034;-69
2022/07/06 02:20:19;;;;;;;6.37;2.07;;;;;;;;;;4985085;28;20615;-69
2022/07/06 02:22:44;;;;;;;9.18;2.20;;;;;;;;;;4989012;28;20281;-69
2022/07/06 02:25:09;;;;;;;8.93;2.63;;;;;;;;;;4986552;28;20042;-69
2022/07/06 02:27:34;;;;;;;6.15;1.77;;;;;;;;;;4985802;28;20064;-69
2022/07/06 02:30:00;;;;;;;8.30;2.97;;;;;;;;;;4989917;28;20065;-69
2022/07/06 02:32:25;;;;;;;7.60;2.17;;;;;;;;;;4984964;28;20274;-69
2022/07/06 02:34:50;;;;;;;6.75;2.60;;;;;;;;;;4984286;28;20277;-69
2022/07/06 02:37:16;;;;;;;10.52;2.30;;;;;;;;;;4988187;28;20023;-69
2022/07/06 02:39:41;;;;;;;6.50;2.00;;;;;;;;;;4988755;28;20030;-69
2022/07/06 02:42:06;;;;;;;4.05;2.33;;;;;;;;;;4988083;28;20368;-69
2022/07/06 02:44:31;;;;;;;8.05;3.10;;;;;;;;;;4990519;28;20121;-69
2022/07/06 02:46:57;;;;;;;7.85;2.45;;;;;;;;;;4985043;28;20057;-69
2022/07/06 02:49:22;;;;;;;4.37;2.30;;;;;;;;;;4989206;28;20030;-68
2022/07/06 02:51:47;;;;;;;5.07;2.27;;;;;;;;;;4988881;28;20276;-68
2022/07/06 02:54:12;;;;;;;10.05;3.05;;;;;;;;;;4984413;28;20368;-69
2022/07/06 02:56:37;;;;;;;6.93;2.97;;;;;;;;;;4988780;28;20019;-69
2022/07/06 02:59:02;;;;;;;5.47;2.50;;;;;;;;;;4987161;28;20668;-69
2022/07/06 03:01:28;;;;;;;6.17;2.20;;;;;;;;;;4986222;28;20273;-69
2022/07/06 03:03:53;;;;;;;7.75;2.95;;;;;;;;;;4989423;28;20344;-69
2022/07/06 03:06:18;;;;;;;9.50;2.83;;;;;;;;;;4988037;28;20037;-69
2022/07/06 03:08:43;;;;;;;6.17;3.20;;;;;;;;;;4988307;28;20035;-69
2022/07/06 03:11:09;;;;;;;4.22;2.80;;;;;;;;;;4990182;28;20277;-69
2022/07/06 03:13:34;;;;;;;7.00;3.03;;;;;;;;;;4987491;28;20593;-69
2022/07/06 03:16:00;;;;;;;8.95;3.38;;;;;;;;;;4990058;28;20053;-69
2022/07/06 03:18:25;;;;;;;9.57;3.20;;;;;;;;;;4989028;28;20029;-69
2022/07/06 03:20:50;;;;;;;6.50;3.00;;;;;;;;;;4989741;28;20022;-69
2022/07/06 03:23:15;;;;;;;5.57;2.75;;;;;;;;;;4987670;28;20272;-68
2022/07/06 03:25:40;;;;;;;6.73;3.07;;;;;;;;;;4989979;28;20117;-69
2022/07/06 03:28:05;;;;;;;10.80;2.80;;;;;;;;;;4985870;28;20282;-69
2022/07/06 03:30:31;;;;;;;5.70;2.83;;;;;;;;;;4988335;28;20416;-69
2022/07/06 03:32:56;;;;;;;5.35;3.13;;;;;;;;;;4988472;28;20606;-68
2022/07/06 03:35:21;;;;;;;21.40;3.70;;;;;;;;;;4988170;28;20097;-69
2022/07/06 03:37:46;;;;;;;13.80;5.50;;;;;;;;;;4987792;28;20297;-69
2022/07/06 03:40:11;;;;;;;6.73;3.10;;;;;;;;;;4987301;28;20034;-69
2022/07/06 03:42:37;;;;;;;9.55;3.10;;;;;;;;;;4985679;28;20300;-69
2022/07/06 03:45:02;;;;;;;8.93;3.00;;;;;;;;;;4988884;28;20018;-69
2022/07/06 03:47:27;;;;;;;6.38;3.00;;;;;;;;;;4982424;28;20361;-69
2022/07/06 03:49:53;;;;;;;8.20;3.60;;;;;;;;;;4981635;28;20069;-69
2022/07/06 03:52:18;;;;;;;7.20;3.00;;;;;;;;;;4986104;28;20663;-69
2022/07/06 03:54:43;;;;;;;7.88;3.90;;;;;;;;;;4988263;28;20281;-69
2022/07/06 03:57:08;;;;;;;8.48;3.83;;;;;;;;;;4988141;28;20014;-69
2022/07/06 03:59:33;;;;;;;8.50;3.57;;;;;;;;;;4988011;28;20025;-69
2022/07/06 04:01:59;;;;;;;11.18;3.60;;;;;;;;;;4988662;28;20599;-68
2022/07/06 04:04:25;;;;;;;8.13;3.70;;;;;;;;;;4990508;28;20802;-69
2022/07/06 04:06:50;;;;;;;6.72;3.67;;;;;;;;;;4990399;28;20296;-69
2022/07/06 04:09:15;;;;;;;10.00;3.63;;;;;;;;;;4992124;28;20078;-69
2022/07/06 04:11:40;;;;;;;13.37;4.57;;;;;;;;;;4989738;28;20743;-69
2022/07/06 04:14:05;;;;;;;8.02;2.90;;;;;;;;;;4992324;28;20285;-69
2022/07/06 04:16:31;;;;;;;7.90;3.40;;;;;;;;;;4990968;28;20072;-69
2022/07/06 04:18:56;;;;;;;5.57;3.10;;;;;;;;;;4991041;28;20040;-69
2022/07/06 04:21:21;;;;;;;6.80;3.23;;;;;;;;;;4989223;28;20273;-69
2022/07/06 04:23:46;;;;;;;10.40;3.33;;;;;;;;;;4990834;28;20368;-69
2022/07/06 04:26:11;;;;;;;9.23;3.90;;;;;;;;;;4988861;28;20274;-69
2022/07/06 04:28:37;;;;;;;9.15;4.80;;;;;;;;;;4992267;28;20662;-69
2022/07/06 04:31:02;;;;;;;9.30;3.50;;;;;;;;;;4990993;28;20049;-69
2022/07/06 04:33:27;;;;;;;13.73;4.53;;;;;;;;;;4991177;28;20028;-68
2022/07/06 04:35:52;;;;;;;7.55;3.35;;;;;;;;;;4990106;28;20273;-69
2022/07/06 04:38:17;;;;;;;10.13;2.90;;;;;;;;;;4991069;28;20034;-69
2022/07/06 04:40:46;;;;;;;12.88;3.30;;;;;;;;;;4990051;28;20379;-69
2022/07/06 04:43:11;;;;;;;11.93;4.22;;;;;;;;;;4992342;28;20646;-69
2022/07/06 04:45:36;;;;;;;11.57;4.45;;;;;;;;;;4989969;28;20042;-69
2022/07/06 04:48:01;;;;;;;15.50;7.40;;;;;;;;;;4990763;28;20066;-69
2022/07/06 04:50:26;;;;;;;9.40;3.20;;;;;;;;;;4989797;28;20028;-69
2022/07/06 04:52:52;;;;;;;7.03;3.85;;;;;;;;;;4989429;28;20101;-69
2022/07/06 04:55:17;;;;;;;12.30;5.00;;;;;;;;;;4990180;28;20030;-69
2022/07/06 04:57:42;;;;;;;10.68;4.05;;;;;;;;;;4988705;28;20299;-69
2022/07/06 05:00:08;;;;;;;9.90;4.63;;;;;;;;;;4991504;28;20749;-69
2022/07/06 05:02:33;;;;;;;10.63;3.90;;;;;;;;;;4989245;28;20025;-70
2022/07/06 05:04:58;;;;;;;13.10;4.18;;;;;;;;;;4991784;28;20018;-69
2022/07/06 05:07:28;;;;;;;14.43;4.60;;;;;;;;;;4985212;28;20423;-70
2022/07/06 05:09:53;;;;;;;11.88;4.05;;;;;;;;;;4989453;28;20756;-69
2022/07/06 05:12:18;;;;;;;10.30;4.30;;;;;;;;;;4988822;28;20069;-69
2022/07/06 05:14:43;;;;;;;11.23;4.53;;;;;;;;;;4987859;28;20278;-70
2022/07/06 05:17:08;;;;;;;11.43;5.37;;;;;;;;;;4989047;28;20276;-69
2022/07/06 05:19:33;;;;;;;7.57;4.20;;;;;;;;;;4989065;28;20072;-69
2022/07/06 05:21:59;;;;;;;10.60;4.17;;;;;;;;;;4988691;28;20265;-69
2022/07/06 05:24:24;;;;;;;12.32;4.68;;;;;;;;;;4989060;28;20300;-70
2022/07/06 05:26:49;;;;;;;8.50;3.90;;;;;;;;;;4986237;28;20026;-69
2022/07/06 05:29:14;;;;;;;12.02;4.50;;;;;;;;;;4986926;28;20773;-69
2022/07/06 05:31:39;;;;;;;13.45;4.07;;;;;;;;;;4985542;28;20484;-69
2022/07/06 05:34:04;;;;;;;13.10;4.03;;;;;;;;;;4987952;28;20026;-70
2022/07/06 05:36:30;;;;;;;7.43;4.13;;;;;;;;;;4987080;28;20277;-69
2022/07/06 05:38:55;;;;;;;9.77;3.87;;;;;;;;;;4987326;28;20995;-69
2022/07/06 05:41:20;;;;;;;9.77;4.03;;;;;;;;;;4988194;28;20273;-69
2022/07/06 05:43:45;;;;;;;9.98;4.88;;;;;;;;;;4986764;28;20030;-69
2022/07/06 05:46:10;;;;;;;10.97;5.40;;;;;;;;;;4986033;28;20030;-69
2022/07/06 05:51:19;;;;;;;7.35;3.13;;;;;;;;;;4984922;28;20324;-69
2022/07/06 05:53:44;;;;;;;11.37;4.60;;;;;;;;;;4984001;28;20034;-69
2022/07/06 05:56:10;;;;;;;9.93;3.80;;;;;;;;;;4985462;28;20280;-68
2022/07/06 05:58:35;;;;;;;8.60;3.63;;;;;;;;;;4988204;28;20022;-68
2022/07/06 06:01:00;;;;;;;11.53;4.40;;;;;;;;;;4989955;28;20678;-69
2022/07/06 06:03:25;;;;;;;10.87;4.20;;;;;;;;;;4986899;28;20370;-69
2022/07/06 06:05:51;;;;;;;20.10;4.17;;;;;;;;;;4990354;28;20278;-69
2022/07/06 06:08:16;;;;;;;7.03;3.20;;;;;;;;;;4987614;28;20026;-69
2022/07/06 06:10:42;;;;;;;8.82;3.95;;;;;;;;;;4988192;28;20050;-70
2022/07/06 06:13:08;;;;;;;12.00;4.13;;;;;;;;;;4985614;28;20094;-70
2022/07/06 06:15:33;;;;;;;13.73;3.90;;;;;;;;;;4990354;28;20023;-70
2022/07/06 06:17:58;;;;;;;14.77;3.85;;;;;;;;;;4990301;28;20026;-70
2022/07/06 06:20:23;;;;;;;14.10;3.77;;;;;;;;;;4988836;28;20050;-69
2022/07/06 06:22:53;;;;;;;9.45;3.55;;;;;;;;;;4990445;28;20300;-68
2022/07/06 06:25:20;;;;;;;13.23;3.77;;;;;;;;;;4986956;28;20022;-68
2022/07/06 06:27:46;;;;;;;19.85;4.05;;;;;;;;;;4989410;28;20272;-70
2022/07/06 06:30:12;;;;;;;13.18;3.58;;;;;;;;;;4989216;28;20022;-70
2022/07/06 06:32:37;;;;;;;11.40;4.10;;;;;;;;;;4984419;28;20057;-69
2022/07/06 06:35:03;;;;;;;12.15;3.15;;;;;;;;;;4987346;28;20022;-70
2022/07/06 06:37:28;;;;;;;9.88;3.05;;;;;;;;;;4987259;28;20027;-70
2022/07/06 06:39:53;;;;;;;8.70;2.57;;;;;;;;;;4987473;28;20664;-70
2022/07/06 06:42:18;;;;;;;10.47;3.13;;;;;;;;;;4983278;28;20289;-70
2022/07/06 06:44:43;;;;;;;9.23;2.57;;;;;;;;;;4985076;28;20273;-70
2022/07/06 06:47:08;;;;;;;14.80;2.90;;;;;;;;;;4986120;28;20778;-70
2022/07/06 06:49:34;;;;;;;9.37;2.90;;;;;;;;;;4987161;28;20305;-69
2022/07/06 06:51:59;;;;;;;20.10;3.00;;;;;;;;;;4983672;28;20294;-69
2022/07/06 06:54:24;;;;;;;8.37;2.20;;;;;;;;;;4988007;28;20369;-69
2022/07/06 06:56:49;;;;;;;9.10;2.37;;;;;;;;;;4988653;28;20317;-69
2022/07/06 06:59:14;;;;;;;13.73;2.70;;;;;;;;;;4984498;28;22039;-69
2022/07/06 07:01:40;;;;;;;12.10;1.95;;;;;;;;;;4989606;28;20273;-68
2022/07/06 07:04:06;;;;;;;7.67;2.47;;;;;;;;;;4990878;28;20033;-69
2022/07/06 07:06:31;;;;;;;5.93;1.75;;;;;;;;;;4994065;28;20766;-69
2022/07/06 07:08:56;;;;;;;7.88;2.00;;;;;;;;;;4989112;28;20019;-68
2022/07/06 07:11:21;;;;;;;10.35;2.47;;;;;;;;;;4989316;28;20082;-69
2022/07/06 07:13:47;;;;;;;9.17;3.00;;;;;;;;;;4989778;28;20022;-68
2022/07/06 07:16:12;;;;;;;8.17;2.67;;;;;;;;;;4990171;28;20281;-68
2022/07/06 07:18:37;;;;;;;8.93;2.63;;;;;;;;;;4989483;28;20266;-69
2022/07/06 07:21:02;;;;;;;5.57;2.37;;;;;;;;;;4987015;28;20289;-70
2022/07/06 07:23:28;;;;;;;8.73;2.60;;;;;;;;;;4987265;28;20297;-70
2022/07/06 07:25:53;;;;;;;9.55;2.65;;;;;;;;;;4990294;28;20022;-70
2022/07/06 07:28:18;;;;;;;5.60;2.67;;;;;;;;;;4987322;28;20027;-70
2022/07/06 07:30:43;;;;;;;4.13;2.03;;;;;;;;;;4990448;28;20250;-70
2022/07/06 07:33:08;;;;;;;9.87;2.20;;;;;;;;;;4987888;28;20404;-70
2022/07/06 07:35:33;;;;;;;10.87;2.53;;;;;;;;;;4985257;28;20281;-70
2022/07/06 07:37:59;;;;;;;13.50;2.00;;;;;;;;;;4986779;28;20320;-70
2022/07/06 07:40:24;;;;;;;11.70;2.37;;;;;;;;;;4994354;28;20407;-70
2022/07/06 07:42:49;;;;;;;7.18;1.40;;;;;;;;;;4990317;28;20270;-70
2022/07/06 07:45:15;;;;;;;4.47;1.63;;;;;;;;;;4990466;28;20026;-69
2022/07/06 07:47:40;;;;;;;5.00;1.73;;;;;;;;;;4991414;28;20076;-70
2022/07/06 07:50:06;;;;;;;11.97;1.43;;;;;;;;;;4992077;28;20097;-70
2022/07/06 07:52:31;;;;;;;6.45;1.20;;;;;;;;;;4992136;28;20281;-70
2022/07/06 07:54:56;;;;;;;7.55;1.02;;;;;;;;;;4989172;28;20013;-70
2022/07/06 07:57:22;;;;;;;6.65;1.67;;;;;;;;;;4992175;28;20018;-70
2022/07/06 07:59:47;;;;;;;10.17;1.27;;;;;;;;;;4993246;28;20061;-70
2022/07/06 08:02:12;;;;;;;5.57;1.23;;;;;;;;;;4991357;28;20678;-70
2022/07/06 08:04:37;;;;;;;10.83;1.97;;;;;;;;;;4990858;28;20026;-70
2022/07/06 08:07:02;;;;;;;7.17;1.90;;;;;;;;;;4991503;28;20369;-70
2022/07/06 08:09:28;;;;;;;18.40;3.88;;;;;;;;;;4991564;28;20285;-70
2022/07/06 08:11:53;;;;;;;7.78;2.05;;;;;;;;;;4990531;28;20015;-70
2022/07/06 08:14:18;;;;;;;4.25;1.58;;;;;;;;;;4992205;28;20046;-70
2022/07/06 08:16:43;;;;;;;8.83;1.80;;;;;;;;;;4992019;28;20037;-70
2022/07/06 08:19:09;;;;;;;13.73;2.17;;;;;;;;;;4992582;28;20702;-70
2022/07/06 08:21:34;;;;;;;5.40;1.50;;;;;;;;;;4989892;28;20062;-70
2022/07/06 08:24:00;;;;;;;10.18;1.75;;;;;;;;;;4986610;28;20030;-70
2022/07/06 08:26:26;;;;;;;8.13;1.77;;;;;;;;;;4991004;28;20072;-70
2022/07/06 08:28:51;;;;;;;9.02;1.30;;;;;;;;;;4990914;28;20026;-70
2022/07/06 08:31:17;;;;;;;6.10;1.05;;;;;;;;;;4992607;28;20021;-70
2022/07/06 08:33:42;;;;;;;4.20;1.10;;;;;;;;;;4989198;28;20026;-70
2022/07/06 08:36:07;;;;;;;6.13;0.90;;;;;;;;;;4992548;28;20073;-70
2022/07/06 08:38:32;;;;;;;3.67;1.00;;;;;;;;;;4989333;28;20027;-70
2022/07/06 08:40:57;;;;;;;4.67;1.00;;;;;;;;;;4989022;28;20037;-70
2022/07/06 08:43:23;;;;;;;5.45;0.90;;;;;;;;;;4992542;28;20300;-71
2022/07/06 08:45:49;;;;;;;7.18;1.15;;;;;;;;;;4988800;28;20109;-70
2022/07/06 08:48:14;;;;;;;5.63;1.10;;;;;;;;;;4990577;28;20031;-70
2022/07/06 08:50:39;;;;;;;4.80;0.98;;;;;;;;;;4993459;28;20019;-70
2022/07/06 08:53:05;;;;;;;2.38;0.73;;;;;;;;;;4987597;28;20022;-71
2022/07/06 08:55:30;;;;;;;10.97;0.90;;;;;;;;;;4992176;28;20034;-70
2022/07/06 08:57:56;;;;;;;8.38;1.02;;;;;;;;;;4990365;28;20356;-71
2022/07/06 09:00:21;;;;;;;7.22;0.98;;;;;;;;;;4991015;28;20105;-68
2022/07/06 09:02:49;;;;;;;12.13;1.08;;;;;;;;;;4987539;28;20053;-70
2022/07/06 09:05:16;;;;;;;9.70;1.33;;;;;;;;;;4990362;28;20109;-70
2022/07/06 09:07:41;;;;;;;5.03;0.63;;;;;;;;;;4991500;28;20026;-69
2022/07/06 09:10:07;;;;;;;3.95;1.00;;;;;;;;;;4991879;28;20022;-70
2022/07/06 09:12:33;;;;;;;5.95;1.10;;;;;;;;;;4990004;28;20089;-70
2022/07/06 09:14:58;;;;;;;7.33;1.33;;;;;;;;;;4987455;28;20479;-71
2022/07/06 09:17:29;;;;;;;5.80;1.70;;;;;;;;;;4989477;28;20274;-70
2022/07/06 09:19:55;;;;;;;4.50;0.95;;;;;;;;;;4987698;28;20017;-70
2022/07/06 09:22:31;;;;;;;5.50;1.20;;;;;;;;;;4989743;28;20034;-70
2022/07/06 09:25:05;;;;;;;4.20;1.08;;;;;;;;;;4989654;28;20085;-70
2022/07/06 09:27:31;;;;;;;6.97;1.13;;;;;;;;;;4990994;28;20053;-69
2022/07/06 09:29:59;;;;;;;3.67;0.77;;;;;;;;;;4988994;28;20452;-70
2022/07/06 09:32:24;;;;;;;5.32;0.70;;;;;;;;;;4990114;28;20053;-69
2022/07/06 09:34:49;;;;;;;1.80;0.50;;;;;;;;;;4986888;28;20057;-70
2022/07/06 09:37:15;;;;;;;4.00;0.77;;;;;;;;;;4991057;28;20030;-70
2022/07/06 09:39:40;;;;;;;9.30;0.98;;;;;;;;;;4988538;28;20273;-70
2022/07/06 09:42:09;;;;;;;6.75;0.75;;;;;;;;;;4988799;28;20621;-69
2022/07/06 09:44:36;;;;;;;6.05;1.33;;;;;;;;;;4987847;28;20026;-72
2022/07/06 09:47:03;;;;;;;7.82;0.70;;;;;;;;;;4989041;28;20023;-70
2022/07/06 09:49:28;;;;;;;4.03;0.95;;;;;;;;;;4987866;28;20018;-69
2022/07/06 09:51:55;;;;;;;4.70;1.02;;;;;;;;;;4989254;28;20018;-70
2022/07/06 09:54:20;;;;;;;1.95;0.55;;;;;;;;;;4988555;28;20081;-70
2022/07/06 09:56:52;;;;;;;4.80;1.03;;;;;;;;;;4990025;28;20786;-70
2022/07/06 09:59:21;;;;;;;7.70;0.77;;;;;;;;;;4989570;28;20273;-70
2022/07/06 10:01:46;;;;;;;2.22;0.75;;;;;;;;;;4982740;28;20077;-70
2022/07/06 10:04:12;;;;;;;9.43;0.88;;;;;;;;;;4987753;28;20440;-70
2022/07/06 10:06:38;;;;;;;3.40;0.60;;;;;;;;;;4987866;28;20022;-71
2022/07/06 10:09:07;;;;;;;5.03;0.55;;;;;;;;;;4987802;28;20022;-70
2022/07/06 10:11:34;;;;;;;3.67;0.77;;;;;;;;;;4987524;28;20015;-71
2022/07/06 10:14:01;;;;;;;6.32;0.80;;;;;;;;;;4987724;28;20033;-70
2022/07/06 10:16:26;;;;;;;4.93;0.95;;;;;;;;;;4986426;28;20049;-70
2022/07/06 10:18:53;;;;;;;5.82;1.48;;;;;;;;;;4990908;28;20022;-71
2022/07/06 10:21:18;;;;;;;5.75;0.80;;;;;;;;;;4985559;28;20029;-70
2022/07/06 10:23:44;;;;;;;6.82;1.27;;;;;;;;;;4990299;28;20419;-70
2022/07/06 10:26:09;;;;;;;5.20;0.80;;;;;;;;;;4989664;28;20479;-70
2022/07/06 10:28:34;;;;;;;2.42;0.75;;;;;;;;;;4989195;28;20029;-70
2022/07/06 10:31:00;;;;;;;5.63;0.90;;;;;;;;;;4986308;28;20511;-70
2022/07/06 10:33:25;;;;;;;3.42;0.93;;;;;;;;;;4988818;28;20335;-70
2022/07/06 10:35:51;;;;;;;1.98;0.57;;;;;;;;;;4988770;28;20018;-70
2022/07/06 10:38:17;;;;;;;3.42;0.98;;;;;;;;;;4990279;28;20033;-70
2022/07/06 10:43:36;;;;;;;7.65;0.75;;;;;;;;;;4989172;28;20418;-70
2022/07/06 10:46:05;;;;;;;3.97;0.80;;;;;;;;;;4987164;28;20014;-70
2022/07/06 10:48:41;;;;;;;2.70;0.82;;;;;;;;;;4989066;28;20026;-70
2022/07/06 10:51:06;;;;;;;3.15;1.02;;;;;;;;;;4989297;28;20023;-70
2022/07/06 10:53:35;;;;;;;3.13;0.77;;;;;;;;;;4984922;28;20533;-70
2022/07/06 10:56:11;;;;;;;2.13;0.70;;;;;;;;;;4988921;28;20157;-69
2022/07/06 10:58:37;;;;;;;2.28;0.90;;;;;;;;;;4988757;28;20076;-73
2022/07/06 11:01:03;;;;;;;3.80;0.93;;;;;;;;;;4989043;28;20026;-69
2022/07/06 11:03:37;;;;;;;9.52;0.85;;;;;;;;;;4988888;28;20022;-70
2022/07/06 11:06:09;;;;;;;5.65;0.82;;;;;;;;;;4989251;28;20476;-70
2022/07/06 11:08:45;;;;;;;3.13;0.57;;;;;;;;;;4982924;28;20030;-69
2022/07/06 11:11:11;;;;;;;3.70;1.02;;;;;;;;;;4991990;28;20113;-70
2022/07/06 11:13:41;;;;;;;4.22;0.90;;;;;;;;;;4994191;28;20024;-71
2022/07/06 11:16:07;;;;;;;1.80;0.90;;;;;;;;;;4995398;28;20483;-70
2022/07/06 11:18:39;;;;;;;5.17;0.93;;;;;;;;;;4993913;28;20041;-69
2022/07/06 11:21:23;;;;;;;6.78;1.10;;;;;;;;;;4993128;28;20319;-70
2022/07/06 11:23:49;;;;;;;2.65;1.00;;;;;;;;;;4993018;28;20061;-71
2022/07/06 11:26:15;;;;;;;1.70;0.85;;;;;;;;;;4996840;28;20026;-70
2022/07/06 11:28:40;;;;;;;5.07;1.30;;;;;;;;;;4996257;28;20025;-70
2022/07/06 11:31:05;;;;;;;6.63;1.30;;;;;;;;;;4992004;28;20018;-70
2022/07/06 11:33:31;;;;;;;6.20;1.33;;;;;;;;;;4993873;28;20041;-69
2022/07/06 11:36:11;;;;;;;3.35;1.48;;;;;;;;;;4994052;28;20316;-70
2022/07/06 11:38:36;;;;;;;;;;;;;;;;;;4995922;28;20037;-71
2022/07/06 11:41:01;;;;;;;4.30;1.23;;;;;;;;;;4995574;28;20382;-70
2022/07/06 11:43:26;;;;;;;1.57;1.10;;;;;;;;;;4994821;28;20041;-69
2022/07/06 11:45:52;;;;;;;8.20;1.60;;;;;;;;;;4995635;28;20427;-69
2022/07/06 11:48:17;;;;;;;10.77;2.37;;;;;;;;;;4995851;28;20030;-69
2022/07/06 11:50:42;;;;;;;4.70;1.20;;;;;;;;;;4995069;28;20068;-70
2022/07/06 11:53:07;;;;;;;4.07;1.10;;;;;;;;;;4995531;28;20679;-72
2022/07/06 11:55:33;;;;;;;10.95;2.15;;;;;;;;;;4994334;28;20049;-69
2022/07/06 11:58:00;;;;;;;4.03;1.17;;;;;;;;;;4996059;28;20032;-70
2022/07/06 12:00:25;;;;;;;5.10;1.55;;;;;;;;;;4996628;28;20026;-69
2022/07/06 12:03:08;;;;;;;2.67;0.93;;;;;;;;;;4992724;28;20110;-71
2022/07/06 12:05:33;;;;;;;2.55;0.90;;;;;;;;;;4994311;28;20037;-69
2022/07/06 12:08:05;;;;;;;3.67;0.85;;;;;;;;;;4995122;28;20019;-70
2022/07/06 12:10:33;;;;;;;3.00;0.70;;;;;;;;;;4995276;28;20018;-70
2022/07/06 12:13:04;;;;;;;4.43;1.17;;;;;;;;;;4995019;28;20025;-70
2022/07/06 12:15:30;;;;;;;4.97;1.50;;;;;;;;;;4993733;28;20065;-70
2022/07/06 12:17:55;;;;;;;6.20;1.02;;;;;;;;;;4993527;28;20475;-70
2022/07/06 12:20:20;;;;;;;4.28;0.90;;;;;;;;;;4994590;28;20014;-70
2022/07/06 12:22:45;;;;;;;3.03;0.87;;;;;;;;;;4989508;28;20505;-70
2022/07/06 12:25:10;;;;;;;3.50;0.67;;;;;;;;;;4990652;28;20285;-70
2022/07/06 12:27:35;;;;;;;0.90;0.50;;;;;;;;;;4989831;28;20273;-70
2022/07/06 12:30:11;;;;;;;5.83;0.60;;;;;;;;;;4989379;28;20538;-70
2022/07/06 12:32:37;;;;;;;4.00;0.60;;;;;;;;;;4988591;28;20281;-71
2022/07/06 12:35:09;;;;;;;3.53;0.60;;;;;;;;;;4987219;28;20335;-71
2022/07/06 12:37:34;;;;;;;3.58;0.63;;;;;;;;;;4987918;28;20112;-69
2022/07/06 12:40:00;;;;;;;5.00;0.93;;;;;;;;;;4986096;28;20491;-70
2022/07/06 12:42:25;;;;;;;9.57;0.77;;;;;;;;;;4990272;28;20022;-70
2022/07/06 12:44:51;;;;;;;4.50;0.82;;;;;;;;;;4990742;28;20802;-69
2022/07/06 12:47:21;;;;;;;3.72;0.98;;;;;;;;;;4986962;28;20018;-69
2022/07/06 12:49:46;;;;;;;1.80;0.80;;;;;;;;;;4988404;28;20085;-69
2022/07/06 12:52:12;;;;;;;2.95;0.80;;;;;;;;;;4992832;28;20050;-69
2022/07/06 12:54:50;;;;;;;7.03;0.60;;;;;;;;;;4989725;28;20042;-69
2022/07/06 12:57:16;;;;;;;4.38;1.10;;;;;;;;;;4989874;28;20169;-69
2022/07/06 12:59:45;;;;;;;8.05;1.00;;;;;;;;;;4990138;28;20448;-69
2022/07/06 13:02:18;;;;;;;2.75;0.90;;;;;;;;;;4988622;28;20025;-69
2022/07/06 13:04:43;;;;;;;6.93;1.60;;;;;;;;;;4986872;28;20084;-69
2022/07/06 13:07:17;;;;;;;2.73;0.90;;;;;;;;;;4994776;28;20505;-69
2022/07/06 13:09:43;;;;;;;5.03;0.90;;;;;;;;;;4988122;28;20027;-70
2022/07/06 13:12:08;;;;;;;3.23;0.70;;;;;;;;;;4991937;28;20025;-69
2022/07/06 13:14:33;;;;;;;5.82;1.30;;;;;;;;;;4990623;28;20430;-69
2022/07/06 13:16:59;;;;;;;2.33;0.67;;;;;;;;;;4989200;28;20026;-69
2022/07/06 13:19:24;;;;;;;4.78;0.98;;;;;;;;;;4986381;28;20388;-70
2022/07/06 13:21:49;;;;;;;3.27;0.73;;;;;;;;;;4990212;28;20026;-70
2022/07/06 13:24:15;;;;;;;3.67;0.80;;;;;;;;;;4989439;28;20031;-70
2022/07/06 13:26:40;;;;;;;6.40;0.93;;;;;;;;;;4989297;28;20487;-70
2022/07/06 13:29:06;;;;;;;3.87;0.90;;;;;;;;;;4991119;28;20018;-70
2022/07/06 13:31:31;;;;;;;3.42;0.80;;;;;;;;;;4986409;28;20280;-70
2022/07/06 13:33:57;;;;;;;6.43;1.02;;;;;;;;;;4989793;28;20017;-70
2022/07/06 13:36:25;;;;;;;10.43;0.90;;;;;;;;;;4983363;28;20369;-71
2022/07/06 13:38:50;;;;;;;3.88;0.98;;;;;;;;;;4989296;28;20334;-69
2022/07/06 13:41:15;;;;;;;6.63;1.60;;;;;;;;;;4986926;28;20521;-69
2022/07/06 13:43:40;;;;;;;2.53;0.70;;;;;;;;;;4989405;28;20014;-69
2022/07/06 13:46:06;;;;;;;6.93;0.70;;;;;;;;;;4987780;28;20383;-70
2022/07/06 13:48:32;;;;;;;1.83;0.80;;;;;;;;;;4989405;28;20380;-69
2022/07/06 13:50:57;;;;;;;2.65;0.70;;;;;;;;;;4989806;28;20045;-70
2022/07/06 13:53:22;;;;;;;4.55;0.80;;;;;;;;;;4984138;28;20023;-69
2022/07/06 13:55:47;;;;;;;5.10;1.30;;;;;;;;;;4988387;28;20026;-69
2022/07/06 13:58:13;;;;;;;6.23;1.20;;;;;;;;;;4989960;28;20062;-69
2022/07/06 14:00:38;;;;;;;4.47;1.00;;;;;;;;;;4988736;28;20415;-70
2022/07/06 14:03:03;;;;;;;7.30;1.10;;;;;;;;;;4988906;28;20277;-71
2022/07/06 14:05:29;;;;;;;5.97;0.93;;;;;;;;;;4984145;28;20105;-71
2022/07/06 14:07:54;;;;;;;3.92;1.00;;;;;;;;;;4988569;28;20347;-71
2022/07/06 14:10:19;;;;;;;16.73;1.10;;;;;;;;;;4990695;28;20033;-70
2022/07/06 14:12:44;;;;;;;3.97;0.63;;;;;;;;;;4990297;28;20610;-71
2022/07/06 14:15:09;;;;;;;3.00;0.63;;;;;;;;;;4990027;28;20321;-70
2022/07/06 14:17:35;;;;;;;1.90;0.70;;;;;;;;;;4990574;28;20391;-69
2022/07/06 14:20:00;;;;;;;5.50;0.70;;;;;;;;;;4986113;28;20312;-69
2022/07/06 14:22:25;;;;;;;4.30;1.48;;;;;;;;;;5000388;28;20265;-69
2022/07/06 14:24:50;;;;;;;8.27;0.83;;;;;;;;;;4991197;28;20026;-70
2022/07/06 14:27:15;;;;;;;1.57;0.63;;;;;;;;;;4988394;28;20026;-70
2022/07/06 14:29:41;;;;;;;4.17;0.70;;;;;;;;;;4991582;28;20423;-69
2022/07/06 14:32:06;;;;;;;2.07;0.87;;;;;;;;;;4992708;28;20030;-69
2022/07/06 14:34:31;;;;;;;4.20;0.90;;;;;;;;;;4987228;28;20114;-70
2022/07/06 14:36:56;;;;;;;6.27;0.80;;;;;;;;;;4987333;28;20010;-69
2022/07/06 14:39:22;;;;;;;5.70;0.83;;;;;;;;;;4986300;28;20109;-69